PWSweather.com
Personal Weather Stations
Station Observations
KB2SBX
Sugarloaf, Sugarloaf, PA 18249

SugarloafSugarloaf, PA 18249

Lat: 41.0126685, Lon: -76.1082041

Elevation: 1030

Station Type: WS-2080

http://sugarloafpaweather.webng.com/weather.shtml

Latest ConditionsUpdated 5:10:00 PM EDT Sunday, May 1, 2016
Currently Today's Max Today's Min Today's Average
Temperature 46.6°F8.1°C 50.2°F10.1°C 41.0°F5.0°C 44.4°F6.9°C
Dew Point 46.3°F7.9°C 46.3°F7.9°C 39.5°F4.2°C 42.9°F6.1°C
Winds 1.6 mph SE2.6 kmh SE 5.4 mph SSE8.7 kmh SSE - 1.1 mph 1.8 kmh
Wind Gusts 3.8 mph6.1 kmh 13.0 mph20.9 kmh - -
Humidity 99% 100% 80% 95%
Pressure 29.71 in1006.1 mb 29.82 in1009.8 mb 29.71 in1006.1 mb -
Precipitation - 0.44 in11.2 mm - -
Hour Temp Dew Point Humidity Winds Wind Gusts Pressure Precip Precip Rate Daily Precip Total
05:10 PM 46.6°F8.1°C 46.3°F7.9°C 99% 1.6 mph SE2.6 kmh SE 3.8 mph6.1 kmh 29.71 in1006.1 mb 0.01 in0.3 mm 0.00 in0.0 mm 0.44 in11.2 mm
05:00 PM 46.4°F8.0°C 46.1°F7.8°C 99% 0.7 mph E1.1 kmh E 3.1 mph5.0 kmh 29.71 in1006.1 mb 0.01 in0.3 mm 0.00 in0.0 mm 0.43 in10.9 mm
04:50 PM 46.4°F8.0°C 46.1°F7.8°C 99% 0.7 mph ESE1.1 kmh ESE 3.1 mph5.0 kmh 29.71 in1006.1 mb 0.01 in0.3 mm 0.00 in0.0 mm 0.43 in10.9 mm
04:40 PM 46.2°F7.9°C 45.4°F7.4°C 97% 0.7 mph SE1.1 kmh SE 3.1 mph5.0 kmh 29.71 in1006.1 mb 0.01 in0.3 mm 0.00 in0.0 mm 0.43 in10.9 mm
04:30 PM 46.0°F7.8°C 45.2°F7.3°C 97% 0.7 mph SE1.1 kmh SE 3.1 mph5.0 kmh 29.72 in1006.4 mb 0.01 in0.3 mm 0.00 in0.0 mm 0.43 in10.9 mm
04:20 PM 45.9°F7.7°C 45.1°F7.3°C 97% Calm Calm 2.2 mph3.5 kmh 29.72 in1006.4 mb 0.02 in0.5 mm 0.06 in1.5 mm 0.43 in10.9 mm
04:10 PM 45.9°F7.7°C 45.1°F7.3°C 97% 0.7 mph SSE1.1 kmh SSE 2.2 mph3.5 kmh 29.72 in1006.4 mb 0.01 in0.3 mm 0.00 in0.0 mm 0.43 in10.9 mm
04:00 PM 45.7°F7.6°C 44.9°F7.2°C 97% 0.7 mph E1.1 kmh E 2.2 mph3.5 kmh 29.72 in1006.4 mb 0.01 in0.3 mm 0.00 in0.0 mm 0.42 in10.7 mm
03:50 PM 45.5°F7.5°C 44.7°F7.1°C 97% 1.6 mph ESE2.6 kmh ESE 2.2 mph3.5 kmh 29.73 in1006.8 mb 0.01 in0.3 mm 0.00 in0.0 mm 0.42 in10.7 mm
03:40 PM 45.1°F7.3°C 44.3°F6.8°C 97% 1.6 mph ESE2.6 kmh ESE 3.8 mph6.1 kmh 29.73 in1006.8 mb 0.01 in0.3 mm 0.00 in0.0 mm 0.42 in10.7 mm
03:30 PM 45.1°F7.3°C 44.3°F6.8°C 97% Calm Calm 3.1 mph5.0 kmh 29.73 in1006.8 mb 0.01 in0.3 mm 0.06 in1.5 mm 0.42 in10.7 mm
03:20 PM 45.1°F7.3°C 44.3°F6.8°C 97% 0.7 mph E1.1 kmh E 2.2 mph3.5 kmh 29.73 in1006.8 mb 0.00 in0.0 mm 0.00 in0.0 mm 0.42 in10.7 mm
03:10 PM 45.1°F7.3°C 44.3°F6.8°C 97% 1.6 mph ESE2.6 kmh ESE 3.1 mph5.0 kmh 29.74 in1007.1 mb 0.01 in0.3 mm 0.00 in0.0 mm 0.42 in10.7 mm
03:00 PM 44.8°F7.1°C 44.0°F6.7°C 97% Calm Calm 3.1 mph5.0 kmh 29.74 in1007.1 mb 0.01 in0.3 mm 0.00 in0.0 mm 0.42 in10.7 mm
02:50 PM 44.8°F7.1°C 44.0°F6.7°C 97% 0.7 mph ESE1.1 kmh ESE 4.5 mph7.2 kmh 29.74 in1007.1 mb 0.01 in0.3 mm 0.00 in0.0 mm 0.42 in10.7 mm
02:40 PM 44.6°F7.0°C 43.8°F6.6°C 97% 1.6 mph E2.6 kmh E 4.5 mph7.2 kmh 29.74 in1007.1 mb 0.01 in0.3 mm 0.00 in0.0 mm 0.42 in10.7 mm
02:30 PM 44.6°F7.0°C 43.8°F6.6°C 97% 0.7 mph ESE1.1 kmh ESE 4.5 mph7.2 kmh 29.74 in1007.1 mb 0.01 in0.3 mm 0.00 in0.0 mm 0.42 in10.7 mm
02:20 PM 44.4°F6.9°C 44.4°F6.9°C 100% 2.2 mph SE3.5 kmh SE 5.4 mph8.7 kmh 29.75 in1007.5 mb 0.01 in0.3 mm 0.00 in0.0 mm 0.42 in10.7 mm
02:10 PM 44.2°F6.8°C 44.2°F6.8°C 100% Calm Calm 3.1 mph5.0 kmh 29.75 in1007.5 mb 0.01 in0.3 mm 0.00 in0.0 mm 0.41 in10.4 mm
02:00 PM 44.2°F6.8°C 44.2°F6.8°C 100% 2.2 mph SE3.5 kmh SE 3.8 mph6.1 kmh 29.75 in1007.5 mb 0.01 in0.3 mm 0.01 in0.3 mm 0.41 in10.4 mm
01:50 PM 44.1°F6.7°C 44.1°F6.7°C 100% 1.6 mph SE2.6 kmh SE 4.5 mph7.2 kmh 29.74 in1007.1 mb 0.00 in0.0 mm 0.00 in0.0 mm 0.40 in10.2 mm
01:40 PM 44.1°F6.7°C 44.1°F6.7°C 100% 1.6 mph SE2.6 kmh SE 3.8 mph6.1 kmh 29.75 in1007.5 mb 0.00 in0.0 mm 0.00 in0.0 mm 0.40 in10.2 mm
01:30 PM 43.9°F6.6°C 43.9°F6.6°C 100% Calm Calm 5.4 mph8.7 kmh 29.75 in1007.5 mb 0.00 in0.0 mm 0.00 in0.0 mm 0.40 in10.2 mm
01:20 PM 43.9°F6.6°C 43.9°F6.6°C 100% 1.6 mph E2.6 kmh E 4.5 mph7.2 kmh 29.75 in1007.5 mb 0.00 in0.0 mm 0.00 in0.0 mm 0.40 in10.2 mm
01:10 PM 43.5°F6.4°C 43.5°F6.4°C 100% 1.6 mph ESE2.6 kmh ESE 6.0 mph9.7 kmh 29.75 in1007.5 mb 0.00 in0.0 mm 0.00 in0.0 mm 0.40 in10.2 mm
01:00 PM 43.5°F6.4°C 43.5°F6.4°C 100% 1.6 mph ESE2.6 kmh ESE 3.8 mph6.1 kmh 29.75 in1007.5 mb 0.00 in0.0 mm 0.00 in0.0 mm 0.40 in10.2 mm
12:50 PM 43.2°F6.2°C 43.2°F6.2°C 100% 2.2 mph E3.5 kmh E 3.8 mph6.1 kmh 29.75 in1007.5 mb 0.00 in0.0 mm 0.00 in0.0 mm 0.40 in10.2 mm
12:40 PM 43.0°F6.1°C 43.0°F6.1°C 100% 0.7 mph E1.1 kmh E 3.8 mph6.1 kmh 29.75 in1007.5 mb 0.00 in0.0 mm 0.00 in0.0 mm 0.40 in10.2 mm
12:30 PM 43.0°F6.1°C 43.0°F6.1°C 100% 0.7 mph ESE1.1 kmh ESE 6.0 mph9.7 kmh 29.75 in1007.5 mb 0.01 in0.3 mm 0.00 in0.0 mm 0.40 in10.2 mm
12:20 PM 42.8°F6.0°C 42.8°F6.0°C 100% 4.5 mph E7.2 kmh E 6.0 mph9.7 kmh 29.75 in1007.5 mb 0.01 in0.3 mm 0.00 in0.0 mm 0.40 in10.2 mm
12:10 PM 42.8°F6.0°C 42.8°F6.0°C 100% 0.7 mph ESE1.1 kmh ESE 2.2 mph3.5 kmh 29.76 in1007.8 mb 0.02 in0.5 mm 0.00 in0.0 mm 0.40 in10.2 mm
12:00 PM 42.6°F5.9°C 42.4°F5.8°C 99% Calm Calm 6.9 mph11.1 kmh 29.75 in1007.5 mb 0.02 in0.5 mm 0.00 in0.0 mm 0.40 in10.2 mm
11:50 AM 42.6°F5.9°C 42.4°F5.8°C 99% 2.2 mph SE3.5 kmh SE 5.4 mph8.7 kmh 29.76 in1007.8 mb 0.03 in0.8 mm 0.00 in0.0 mm 0.40 in10.2 mm
11:40 AM 42.4°F5.8°C 42.2°F5.7°C 99% 1.6 mph ESE2.6 kmh ESE 5.4 mph8.7 kmh 29.76 in1007.8 mb 0.04 in1.0 mm 0.00 in0.0 mm 0.40 in10.2 mm
11:30 AM 42.3°F5.7°C 42.0°F5.6°C 99% 0.7 mph ESE1.1 kmh ESE 3.1 mph5.0 kmh 29.77 in1008.1 mb 0.05 in1.3 mm 0.00 in0.0 mm 0.40 in10.2 mm
11:20 AM 42.1°F5.6°C 41.8°F5.4°C 99% 0.7 mph SE1.1 kmh SE 4.5 mph7.2 kmh 29.77 in1008.1 mb 0.06 in1.5 mm 0.12 in3.0 mm 0.40 in10.2 mm
11:10 AM 41.9°F5.5°C 41.6°F5.3°C 99% 0.7 mph SE1.1 kmh SE 3.1 mph5.0 kmh 29.77 in1008.1 mb 0.04 in1.0 mm 0.00 in0.0 mm 0.39 in9.9 mm
11:00 AM 41.7°F5.4°C 41.5°F5.3°C 99% 0.7 mph E1.1 kmh E 3.1 mph5.0 kmh 29.77 in1008.1 mb 0.04 in1.0 mm 0.01 in0.3 mm 0.39 in9.9 mm
10:50 AM 41.7°F5.4°C 41.5°F5.3°C 99% 1.6 mph SE2.6 kmh SE 6.0 mph9.7 kmh 29.77 in1008.1 mb 0.03 in0.8 mm 0.06 in1.5 mm 0.37 in9.4 mm
10:40 AM 41.7°F5.4°C 41.5°F5.3°C 99% 1.6 mph ESE2.6 kmh ESE 4.5 mph7.2 kmh 29.77 in1008.1 mb 0.02 in0.5 mm 0.06 in1.5 mm 0.36 in9.1 mm
10:30 AM 41.9°F5.5°C 41.6°F5.3°C 99% Calm Calm 3.1 mph5.0 kmh 29.77 in1008.1 mb 0.01 in0.3 mm 0.06 in1.5 mm 0.35 in8.9 mm
10:20 AM 41.9°F5.5°C 41.6°F5.3°C 99% Calm Calm 6.0 mph9.7 kmh 29.77 in1008.1 mb 0.00 in0.0 mm 0.00 in0.0 mm 0.34 in8.6 mm
10:10 AM 41.9°F5.5°C 41.6°F5.3°C 99% 0.7 mph E1.1 kmh E 3.8 mph6.1 kmh 29.77 in1008.1 mb 0.01 in0.3 mm 0.00 in0.0 mm 0.34 in8.6 mm
10:00 AM 41.7°F5.4°C 41.5°F5.3°C 99% 0.7 mph ESE1.1 kmh ESE 5.4 mph8.7 kmh 29.77 in1008.1 mb 0.01 in0.3 mm 0.00 in0.0 mm 0.34 in8.6 mm
09:50 AM 41.7°F5.4°C 41.5°F5.3°C 99% 3.1 mph ESE5.0 kmh ESE 6.0 mph9.7 kmh 29.77 in1008.1 mb 0.01 in0.3 mm 0.00 in0.0 mm 0.34 in8.6 mm
09:40 AM 41.5°F5.3°C 41.3°F5.2°C 99% 0.7 mph E1.1 kmh E 3.8 mph6.1 kmh 29.77 in1008.1 mb 0.01 in0.3 mm 0.00 in0.0 mm 0.34 in8.6 mm
09:30 AM 41.4°F5.2°C 41.4°F5.2°C 100% 0.7 mph SE1.1 kmh SE 3.1 mph5.0 kmh 29.77 in1008.1 mb 0.01 in0.3 mm 0.00 in0.0 mm 0.34 in8.6 mm
09:20 AM 41.2°F5.1°C 41.2°F5.1°C 100% 0.7 mph ESE1.1 kmh ESE 4.5 mph7.2 kmh 29.77 in1008.1 mb 0.02 in0.5 mm 0.00 in0.0 mm 0.34 in8.6 mm
09:10 AM 41.2°F5.1°C 40.4°F4.7°C 97% Calm Calm 6.9 mph11.1 kmh 29.78 in1008.5 mb 0.02 in0.5 mm 0.00 in0.0 mm 0.34 in8.6 mm
09:00 AM 41.4°F5.2°C 40.6°F4.8°C 97% 1.6 mph ESE2.6 kmh ESE 5.4 mph8.7 kmh 29.77 in1008.1 mb 0.02 in0.5 mm 0.00 in0.0 mm 0.34 in8.6 mm
08:50 AM 41.2°F5.1°C 40.1°F4.5°C 96% 1.6 mph ESE2.6 kmh ESE 6.9 mph11.1 kmh 29.77 in1008.1 mb 0.02 in0.5 mm 0.06 in1.5 mm 0.34 in8.6 mm
08:40 AM 41.0°F5.0°C 39.9°F4.4°C 96% 0.7 mph E1.1 kmh E 3.8 mph6.1 kmh 29.77 in1008.1 mb 0.01 in0.3 mm 0.00 in0.0 mm 0.33 in8.4 mm
08:30 AM 41.0°F5.0°C 39.9°F4.4°C 96% 1.6 mph E2.6 kmh E 6.0 mph9.7 kmh 29.77 in1008.1 mb 0.03 in0.8 mm 0.00 in0.0 mm 0.33 in8.4 mm
08:20 AM 41.0°F5.0°C 39.9°F4.4°C 96% 1.6 mph E2.6 kmh E 5.4 mph8.7 kmh 29.77 in1008.1 mb 0.03 in0.8 mm 0.00 in0.0 mm 0.33 in8.4 mm
08:10 AM 41.0°F5.0°C 39.7°F4.3°C 95% Calm Calm 5.4 mph8.7 kmh 29.77 in1008.1 mb 0.04 in1.0 mm 0.00 in0.0 mm 0.32 in8.1 mm
08:00 AM 41.0°F5.0°C 39.7°F4.3°C 95% 3.1 mph E5.0 kmh E 6.9 mph11.1 kmh 29.77 in1008.1 mb 0.06 in1.5 mm 0.00 in0.0 mm 0.32 in8.1 mm
07:50 AM 41.2°F5.1°C 39.9°F4.4°C 95% 3.1 mph ESE5.0 kmh ESE 9.8 mph15.8 kmh 29.77 in1008.1 mb 0.07 in1.8 mm 0.00 in0.0 mm 0.32 in8.1 mm
07:40 AM 41.0°F5.0°C 39.7°F4.3°C 95% 0.7 mph SE1.1 kmh SE 13.0 mph20.9 kmh 29.77 in1008.1 mb 0.08 in2.0 mm 0.00 in0.0 mm 0.32 in8.1 mm
07:30 AM 41.2°F5.1°C 39.6°F4.2°C 94% 1.6 mph SE2.6 kmh SE 6.9 mph11.1 kmh 29.77 in1008.1 mb 0.08 in2.0 mm 0.06 in1.5 mm 0.31 in7.9 mm
07:20 AM 41.2°F5.1°C 39.6°F4.2°C 94% 0.7 mph E1.1 kmh E 7.6 mph12.2 kmh 29.77 in1008.1 mb 0.07 in1.8 mm 0.06 in1.5 mm 0.30 in7.6 mm
07:10 AM 41.4°F5.2°C 39.5°F4.2°C 93% 1.6 mph SE2.6 kmh SE 3.8 mph6.1 kmh 29.77 in1008.1 mb 0.06 in1.5 mm 0.00 in0.0 mm 0.28 in7.1 mm
07:00 AM 41.5°F5.3°C 39.7°F4.3°C 93% 0.7 mph SE1.1 kmh SE 11.4 mph18.3 kmh 29.78 in1008.5 mb 0.06 in1.5 mm 0.01 in0.3 mm 0.27 in6.9 mm
06:50 AM 41.7°F5.4°C 39.8°F4.3°C 93% 3.8 mph ESE6.1 kmh ESE 11.4 mph18.3 kmh 29.79 in1008.8 mb 0.05 in1.3 mm 0.06 in1.5 mm 0.25 in6.4 mm
06:40 AM 41.9°F5.5°C 40.3°F4.6°C 94% 0.7 mph E1.1 kmh E 9.2 mph14.8 kmh 29.79 in1008.8 mb 0.04 in1.0 mm 0.00 in0.0 mm 0.24 in6.1 mm
06:30 AM 42.1°F5.6°C 40.5°F4.7°C 94% 3.1 mph E5.0 kmh E 5.4 mph8.7 kmh 29.79 in1008.8 mb 0.04 in1.0 mm 0.00 in0.0 mm 0.23 in5.8 mm
06:20 AM 42.1°F5.6°C 40.5°F4.7°C 94% 2.2 mph E3.5 kmh E 5.4 mph8.7 kmh 29.79 in1008.8 mb 0.04 in1.0 mm 0.00 in0.0 mm 0.22 in5.6 mm
06:10 AM 42.3°F5.7°C 40.7°F4.8°C 94% 1.6 mph ESE2.6 kmh ESE 3.8 mph6.1 kmh 29.78 in1008.5 mb 0.05 in1.3 mm 0.06 in1.5 mm 0.22 in5.6 mm
06:00 AM 42.4°F5.8°C 40.8°F4.9°C 94% 0.7 mph ENE1.1 kmh ENE 4.5 mph7.2 kmh 29.78 in1008.5 mb 0.04 in1.0 mm 0.00 in0.0 mm 0.21 in5.3 mm
05:50 AM 42.4°F5.8°C 40.8°F4.9°C 94% Calm Calm 4.5 mph7.2 kmh 29.78 in1008.5 mb 0.05 in1.3 mm 0.00 in0.0 mm 0.20 in5.1 mm
05:40 AM 42.6°F5.9°C 41.0°F5.0°C 94% 1.6 mph E2.6 kmh E 4.5 mph7.2 kmh 29.78 in1008.5 mb 0.05 in1.3 mm 0.06 in1.5 mm 0.20 in5.1 mm
05:30 AM 42.8°F6.0°C 40.9°F4.9°C 93% 1.6 mph NE2.6 kmh NE 5.4 mph8.7 kmh 29.78 in1008.5 mb 0.04 in1.0 mm 0.00 in0.0 mm 0.19 in4.8 mm
05:20 AM 42.8°F6.0°C 40.9°F4.9°C 93% 1.6 mph ESE2.6 kmh ESE 5.4 mph8.7 kmh 29.79 in1008.8 mb 0.04 in1.0 mm 0.00 in0.0 mm 0.18 in4.6 mm
05:10 AM 43.0°F6.1°C 41.1°F5.1°C 93% 1.6 mph SE2.6 kmh SE 4.5 mph7.2 kmh 29.80 in1009.1 mb 0.04 in1.0 mm 0.00 in0.0 mm 0.17 in4.3 mm
05:00 AM 43.2°F6.2°C 41.3°F5.2°C 93% Calm Calm 3.1 mph5.0 kmh 29.80 in1009.1 mb 0.04 in1.0 mm 0.01 in0.3 mm 0.17 in4.3 mm
04:50 AM 43.3°F6.3°C 41.5°F5.3°C 93% Calm Calm 2.2 mph3.5 kmh 29.80 in1009.1 mb 0.03 in0.8 mm 0.00 in0.0 mm 0.16 in4.1 mm
04:40 AM 43.5°F6.4°C 41.6°F5.3°C 93% Calm Calm 3.8 mph6.1 kmh 29.80 in1009.1 mb 0.04 in1.0 mm 0.00 in0.0 mm 0.15 in3.8 mm
04:30 AM 43.9°F6.6°C 42.3°F5.7°C 94% Calm Calm 3.1 mph5.0 kmh 29.80 in1009.1 mb 0.06 in1.5 mm 0.00 in0.0 mm 0.14 in3.6 mm
04:20 AM 44.1°F6.7°C 42.7°F5.9°C 95% Calm Calm 4.5 mph7.2 kmh 29.80 in1009.1 mb 0.07 in1.8 mm 0.00 in0.0 mm 0.14 in3.6 mm
04:10 AM 44.4°F6.9°C 43.4°F6.3°C 96% 1.6 mph N2.6 kmh N 4.5 mph7.2 kmh 29.80 in1009.1 mb 0.09 in2.3 mm 0.00 in0.0 mm 0.13 in3.3 mm
04:00 AM 44.8°F7.1°C 43.4°F6.3°C 95% 1.6 mph E2.6 kmh E 6.9 mph11.1 kmh 29.80 in1009.1 mb 0.10 in2.5 mm 0.00 in0.0 mm 0.13 in3.3 mm
03:50 AM 45.5°F7.5°C 44.2°F6.8°C 95% 2.2 mph E3.5 kmh E 4.5 mph7.2 kmh 29.81 in1009.5 mb 0.11 in2.8 mm 0.06 in1.5 mm 0.13 in3.3 mm
03:40 AM 46.2°F7.9°C 44.9°F7.2°C 95% 1.6 mph SE2.6 kmh SE 6.0 mph9.7 kmh 29.80 in1009.1 mb 0.10 in2.5 mm 0.18 in4.6 mm 0.11 in2.8 mm
03:30 AM 46.6°F8.1°C 44.9°F7.2°C 94% 0.7 mph ESE1.1 kmh ESE 3.8 mph6.1 kmh 29.80 in1009.1 mb 0.07 in1.8 mm 0.06 in1.5 mm 0.09 in2.3 mm
03:20 AM 46.8°F8.2°C 44.8°F7.1°C 93% Calm Calm 2.2 mph3.5 kmh 29.80 in1009.1 mb 0.06 in1.5 mm 0.18 in4.6 mm 0.07 in1.8 mm
03:10 AM 47.1°F8.4°C 45.2°F7.3°C 93% 0.7 mph SSW1.1 kmh SSW 2.2 mph3.5 kmh 29.80 in1009.1 mb 0.03 in0.8 mm 0.00 in0.0 mm 0.04 in1.0 mm
03:00 AM 47.3°F8.5°C 45.4°F7.4°C 93% 0.7 mph SE1.1 kmh SE 5.4 mph8.7 kmh 29.80 in1009.1 mb 0.03 in0.8 mm 0.02 in0.5 mm 0.03 in0.8 mm
02:50 AM 47.5°F8.6°C 45.6°F7.6°C 93% 2.2 mph SE3.5 kmh SE 6.9 mph11.1 kmh 29.80 in1009.1 mb 0.01 in0.3 mm 0.00 in0.0 mm 0.02 in0.5 mm
02:40 AM 47.7°F8.7°C 45.7°F7.6°C 93% 0.7 mph SE1.1 kmh SE 5.4 mph8.7 kmh 29.80 in1009.1 mb 0.02 in0.5 mm 0.00 in0.0 mm 0.02 in0.5 mm
02:30 AM 48.0°F8.9°C 45.8°F7.7°C 92% 0.7 mph E1.1 kmh E 11.4 mph18.3 kmh 29.80 in1009.1 mb 0.02 in0.5 mm 0.06 in1.5 mm 0.02 in0.5 mm
02:20 AM 48.2°F9.0°C 45.4°F7.4°C 90% Calm Calm 3.1 mph5.0 kmh 29.80 in1009.1 mb 0.01 in0.3 mm 0.00 in0.0 mm 0.01 in0.3 mm
02:10 AM 48.6°F9.2°C 45.5°F7.5°C 89% 3.1 mph SSE5.0 kmh SSE 6.0 mph9.7 kmh 29.81 in1009.5 mb 0.01 in0.3 mm 0.00 in0.0 mm 0.01 in0.3 mm
02:00 AM 48.9°F9.4°C 45.5°F7.5°C 88% 0.7 mph SSE1.1 kmh SSE 2.2 mph3.5 kmh 29.82 in1009.8 mb 0.01 in0.3 mm 0.00 in0.0 mm 0.01 in0.3 mm
01:50 AM 49.3°F9.6°C 45.3°F7.4°C 86% 0.7 mph S1.1 kmh S 2.2 mph3.5 kmh 29.82 in1009.8 mb 0.01 in0.3 mm 0.06 in1.5 mm 0.01 in0.3 mm
01:40 AM 49.6°F9.8°C 45.3°F7.4°C 85% Calm Calm 4.5 mph7.2 kmh 29.82 in1009.8 mb 0.00 in0.0 mm 0.00 in0.0 mm 0.00 in0.0 mm
01:30 AM 49.6°F9.8°C 45.3°F7.4°C 85% 0.7 mph SE1.1 kmh SE 3.8 mph6.1 kmh 29.81 in1009.5 mb 0.00 in0.0 mm 0.00 in0.0 mm 0.00 in0.0 mm
01:20 AM 49.8°F9.9°C 45.2°F7.3°C 84% 0.7 mph E1.1 kmh E 6.9 mph11.1 kmh 29.80 in1009.1 mb 0.00 in0.0 mm 0.00 in0.0 mm 0.00 in0.0 mm
01:10 AM 49.8°F9.9°C 45.2°F7.3°C 84% 0.7 mph E1.1 kmh E 4.5 mph7.2 kmh 29.80 in1009.1 mb 0.00 in0.0 mm 0.00 in0.0 mm 0.00 in0.0 mm
01:00 AM 50.0°F10.0°C 44.7°F7.1°C 82% Calm Calm 8.3 mph13.4 kmh 29.81 in1009.5 mb 0.00 in0.0 mm 0.00 in0.0 mm 0.00 in0.0 mm
12:50 AM 50.0°F10.0°C 44.7°F7.1°C 82% 0.7 mph SE1.1 kmh SE 6.0 mph9.7 kmh 29.81 in1009.5 mb 0.00 in0.0 mm 0.00 in0.0 mm 0.00 in0.0 mm
12:40 AM 50.0°F10.0°C 44.4°F6.9°C 81% 0.7 mph N1.1 kmh N 3.8 mph6.1 kmh 29.81 in1009.5 mb 0.00 in0.0 mm 0.00 in0.0 mm 0.00 in0.0 mm
12:30 AM 50.0°F10.0°C 44.4°F6.9°C 81% 0.7 mph SE1.1 kmh SE 8.3 mph13.4 kmh 29.82 in1009.8 mb 0.00 in0.0 mm 0.00 in0.0 mm 0.00 in0.0 mm
12:20 AM 50.0°F10.0°C 44.4°F6.9°C 81% 5.4 mph SSE8.7 kmh SSE 8.3 mph13.4 kmh 29.82 in1009.8 mb 0.00 in0.0 mm 0.00 in0.0 mm 0.00 in0.0 mm
12:10 AM 50.0°F10.0°C 44.4°F6.9°C 81% 0.7 mph ENE1.1 kmh ENE 3.8 mph6.1 kmh 29.81 in1009.5 mb 0.00 in0.0 mm 0.00 in0.0 mm 0.00 in0.0 mm
12:00 AM 50.2°F10.1°C 44.3°F6.8°C 80% 2.2 mph E3.5 kmh E 6.9 mph11.1 kmh 29.82 in1009.8 mb 0.00 in0.0 mm 0.00 in0.0 mm 0.00 in0.0 mm